Time;durP1;ratioP1;P1;durP2;ratioP2;P2;SDS_P1;SDS_P2;PMS_P1;PMS_P2;Temp;Humidity;BMP_temperature;BMP_pressure;BME280_temperature;BME280_humidity;BME280_pressure;Samples;Min_cycle;Max_cycle;Signal;HPM_P1;HPM_P2
2022/12/26 00:00:19;;;;;;;2.70;2.43;;;;;1.90;96972.00;;;;5098142;27;20422;-87
2022/12/26 00:03:08;;;;;;;2.60;2.23;;;1.30;99.90;1.60;96974.00;;;;5091965;28;20437;-86
2022/12/26 00:05:58;;;;;;;4.00;1.50;;;1.20;99.90;2.00;96968.00;;;;5099038;28;20424;-87
2022/12/26 00:08:47;;;;;;;2.97;2.23;;;1.70;99.90;2.40;96984.00;;;;5109327;28;20801;-87
2022/12/26 00:11:37;;;;;;;2.57;1.60;;;2.70;99.90;2.50;96991.00;;;;5106059;28;20450;-88
2022/12/26 00:14:26;;;;;;;2.17;1.50;;;1.40;99.90;2.70;96965.00;;;;5108939;27;20550;-87
2022/12/26 00:17:15;;;;;;;3.77;2.20;;;;;2.90;96985.00;;;;5109872;27;20785;-87
2022/12/26 00:20:05;;;;;;;2.97;1.80;;;1.60;99.90;2.90;96980.00;;;;5113896;27;20417;-87
2022/12/26 00:22:55;;;;;;;1.60;1.50;;;1.80;99.90;3.00;96979.00;;;;5111374;27;20415;-87
2022/12/26 00:25:44;;;;;;;4.43;2.30;;;1.70;99.90;2.90;96986.00;;;;5105984;27;20423;-86
2022/12/26 00:28:33;;;;;;;2.50;2.30;;;;;2.80;96980.00;;;;5097949;28;20428;-86
2022/12/26 00:31:25;;;;;;;3.30;2.10;;;1.90;99.90;2.80;96969.00;;;;5111396;27;20456;-87
2022/12/26 00:34:14;;;;;;;4.30;2.80;;;;;2.90;96978.00;;;;5115084;27;20463;-87
2022/12/26 00:37:03;;;;;;;5.10;2.57;;;1.90;99.90;2.80;96980.00;;;;5105835;27;20615;-87
2022/12/26 00:39:53;;;;;;;6.63;2.07;;;1.90;99.90;2.30;96964.00;;;;5103596;28;20439;-86
2022/12/26 00:42:41;;;;;;;7.43;2.13;;;4.10;99.90;2.70;96964.00;;;;5109635;28;20783;-86
2022/12/26 00:45:31;;;;;;;2.17;1.97;;;;;2.90;96958.00;;;;5107324;28;20433;-86
2022/12/26 00:48:20;;;;;;;1.70;1.50;;;;;2.70;96959.00;;;;5100476;28;20428;-87
2022/12/26 00:51:09;;;;;;;2.00;1.80;;;1.80;99.90;2.70;96966.00;;;;5107770;27;20438;-87
2022/12/26 00:53:57;;;;;;;4.20;1.93;;;1.80;99.90;3.00;96967.00;;;;5108327;28;20466;-87
2022/12/26 00:56:48;;;;;;;9.33;2.67;;;1.90;99.90;2.90;96989.00;;;;5103821;28;20414;-87
2022/12/26 00:59:37;;;;;;;1.60;1.30;;;1.90;99.90;3.30;96981.00;;;;5109448;28;20466;-86
2022/12/26 01:05:34;;;;;;;3.73;2.70;;;2.10;99.90;3.50;96990.00;;;;5098657;27;20422;-86
2022/12/26 01:08:23;;;;;;;1.47;1.37;;;2.30;99.90;3.30;96985.00;;;;5102759;28;20424;-83
2022/12/26 01:11:38;;;;;;;3.77;2.13;;;2.40;99.90;3.60;96989.00;;;;5103537;27;20460;-88
2022/12/26 01:14:25;;;;;;;3.10;2.23;;;2.30;99.90;4.00;96979.00;;;;5102115;28;20508;-86
2022/12/26 01:17:14;;;;;;;3.47;1.57;;;2.50;99.90;3.80;96969.00;;;;5103651;28;20429;-86
2022/12/26 01:20:03;;;;;;;6.23;1.97;;;;;3.80;96965.00;;;;5109377;28;20413;-87
2022/12/26 01:22:52;;;;;;;3.70;2.20;;;2.60;99.90;3.90;96979.00;;;;5107181;28;20433;-87
2022/12/26 01:25:41;;;;;;;0.77;0.77;;;2.60;99.90;3.60;96972.00;;;;5101605;28;20426;-82
2022/12/26 01:28:30;;;;;;;3.70;1.53;;;;;3.90;96969.00;;;;5095631;28;20425;-86
2022/12/26 01:31:21;;;;;;;1.33;1.23;;;2.70;99.90;3.80;96967.00;;;;5113258;28;20453;-87
2022/12/26 01:34:11;;;;;;;1.73;1.47;;;2.70;99.90;3.60;96957.00;;;;5107277;28;20437;-87
2022/12/26 01:36:59;;;;;;;1.73;1.57;;;2.80;99.90;3.80;96962.00;;;;5113027;28;20428;-87
2022/12/26 01:39:48;;;;;;;1.87;1.47;;;5.30;99.90;4.10;96964.00;;;;5096966;28;20482;-88
2022/12/26 01:42:40;;;;;;;2.30;1.10;;;2.90;99.90;4.20;96975.00;;;;5109171;28;20433;-88
2022/12/26 01:45:32;;;;;;;1.70;1.57;;;3.00;99.90;4.40;96968.00;;;;5109441;28;20427;-88
2022/12/26 01:48:32;;;;;;;2.10;1.43;;;3.00;99.90;4.50;96959.00;;;;5100139;28;20780;-87
2022/12/26 01:51:23;;;;;;;1.27;0.93;;;5.10;99.90;4.30;96964.00;;;;5103557;28;20442;-87
2022/12/26 01:54:15;;;;;;;2.47;1.60;;;3.20;99.90;4.10;96977.00;;;;5105047;28;20429;-87
2022/12/26 01:57:10;;;;;;;2.13;1.47;;;3.20;99.90;4.20;96984.00;;;;5092750;28;20429;-87
2022/12/26 02:00:01;;;;;;;0.87;0.87;;;3.10;99.90;4.30;96985.00;;;;5102426;28;20440;-87
2022/12/26 02:06:00;;;;;;;2.93;1.27;;;3.10;99.90;4.50;96996.00;;;;5102408;28;20448;-88
2022/12/26 02:08:50;;;;;;;1.60;1.30;;;;;4.20;96993.00;;;;5110028;28;20954;-87
2022/12/26 02:11:43;;;;;;;2.37;1.40;;;3.10;99.90;4.30;96987.00;;;;5104871;28;20452;-85
2022/12/26 02:14:32;;;;;;;1.10;1.00;;;3.20;99.90;3.90;97003.00;;;;5110163;28;20481;-86
2022/12/26 02:17:21;;;;;;;1.23;1.03;;;4.70;99.90;4.30;97017.00;;;;5104349;28;20507;-87
2022/12/26 02:20:19;;;;;;;2.47;1.20;;;3.10;99.90;4.80;97018.00;;;;5108240;28;20436;-87
2022/12/26 02:24:12;;;;;;;1.40;1.30;;;3.30;99.90;4.80;97024.00;;;;5094253;28;20429;-87
2022/12/26 02:27:42;;;;;;;2.00;1.40;;;3.40;99.90;4.90;97027.00;;;;5095014;28;20453;-86
2022/12/26 02:30:44;;;;;;;1.73;1.20;;;3.50;99.90;4.50;97015.00;;;;5099439;28;20421;-87
2022/12/26 02:33:47;;;;;;;1.10;1.00;;;3.50;99.90;4.50;97019.00;;;;5088361;28;20436;-87
2022/12/26 02:37:01;;;;;;;2.17;1.50;;;3.50;99.90;4.50;97016.00;;;;5097813;28;20465;-87
2022/12/26 02:40:11;;;;;;;3.30;1.30;;;3.40;99.90;4.50;97023.00;;;;5112046;27;20441;-87
2022/12/26 02:43:06;;;;;;;1.20;1.10;;;3.50;99.90;4.40;97014.00;;;;5093236;28;20459;-88
2022/12/26 02:49:23;;;;;;;1.43;1.10;;;3.50;99.90;4.40;96996.00;;;;5112350;27;20414;-86
2022/12/26 03:14:50;;;;;;;1.67;1.13;;;3.10;99.90;4.10;97009.00;;;;5090793;28;20418;-87
2022/12/26 03:17:44;;;;;;;1.73;1.63;;;3.00;99.90;4.10;97009.00;;;;5103245;28;20443;-87
2022/12/26 03:20:36;;;;;;;0.83;0.83;;;2.90;99.90;3.90;97015.00;;;;5103213;27;20422;-86
2022/12/26 03:23:25;;;;;;;1.47;1.00;;;5.50;99.90;3.60;97015.00;;;;5097578;28;20448;-86
2022/12/26 03:32:44;;;;;;;1.40;1.30;;;2.70;99.90;3.80;97022.00;;;;5113324;27;20458;-87
2022/12/26 03:35:34;;;;;;;1.57;1.17;;;2.80;99.90;4.00;97014.00;;;;5107878;27;20455;-87
2022/12/26 03:38:33;;;;;;;1.37;1.27;;;2.80;99.90;4.00;97020.00;;;;5099728;28;20880;-87
2022/12/26 04:20:22;;;;;;;1.43;1.17;;;2.70;99.90;3.30;97005.00;;;;5108879;28;20424;-86
2022/12/26 04:45:26;;;;;;;2.83;1.10;;;3.90;99.90;3.20;97006.00;;;;5094408;28;20441;-85
2022/12/26 04:51:22;;;;;;;1.63;1.20;;;4.50;99.90;3.10;97011.00;;;;5105689;27;20440;-86
2022/12/26 04:54:10;;;;;;;1.77;1.47;;;2.40;99.90;3.40;97015.00;;;;5110719;27;20413;-87
2022/12/26 04:57:00;;;;;;;1.77;1.33;;;;;3.70;97008.00;;;;5105226;28;20476;-86
2022/12/26 04:59:49;;;;;;;2.87;1.20;;;;;3.60;97016.00;;;;5109476;28;20799;-87
2022/12/26 05:12:07;;;;;;;1.73;1.50;;;2.40;99.90;3.10;97025.00;;;;5107866;28;20455;-86
2022/12/26 05:14:56;;;;;;;2.53;1.37;;;2.40;99.90;3.50;97012.00;;;;5109065;28;20935;-87
2022/12/26 05:30:12;;;;;;;1.13;1.13;;;2.50;99.90;3.60;97030.00;;;;5106622;28;20408;-86
2022/12/26 05:36:08;;;;;;;1.40;1.30;;;;;3.30;97031.00;;;;5100718;28;20468;-86
2022/12/26 05:38:58;;;;;;;1.50;1.40;;;;;3.20;97033.00;;;;5101706;28;20912;-86
2022/12/26 05:41:47;;;;;;;2.27;1.70;;;2.30;99.90;3.10;97045.00;;;;5109083;28;20452;-87
2022/12/26 05:44:36;;;;;;;7.90;3.97;;;;;3.30;97048.00;;;;5096628;28;20444;-85
2022/12/26 05:47:25;;;;;;;9.73;3.97;;;;;3.80;97047.00;;;;5110254;28;20477;-86
2022/12/26 05:50:14;;;;;;;2.70;2.37;;;;;3.80;97062.00;;;;5109367;28;20482;-87
2022/12/26 05:53:03;;;;;;;4.70;2.87;;;2.50;99.90;3.70;97070.00;;;;5100409;28;20429;-87
2022/12/26 05:55:54;;;;;;;5.03;2.73;;;2.60;99.90;3.80;97069.00;;;;5112486;28;20440;-85
2022/12/26 05:58:43;;;;;;;3.83;2.53;;;2.60;99.90;3.70;97066.00;;;;5115297;28;20413;-86
2022/12/26 06:01:32;;;;;;;2.43;2.00;;;2.60;99.90;3.80;97072.00;;;;5096361;28;20445;-87
2022/12/26 06:04:21;;;;;;;2.77;2.00;;;;;3.70;97061.00;;;;5098304;28;20424;-86
2022/12/26 06:07:10;;;;;;;1.40;1.30;;;;;3.70;97071.00;;;;5103357;28;20962;-86
2022/12/26 06:09:59;;;;;;;2.40;1.87;;;;;3.70;97075.00;;;;5110771;28;20435;-86
2022/12/26 06:12:49;;;;;;;1.90;1.70;;;2.60;99.90;3.90;97072.00;;;;5109133;27;20438;-86
2022/12/26 06:15:39;;;;;;;3.40;1.73;;;2.60;99.90;3.60;97057.00;;;;5114275;27;20413;-86
2022/12/26 06:18:28;;;;;;;4.03;2.13;;;2.60;99.90;3.30;97069.00;;;;5099420;28;20432;-86
2022/12/26 06:21:19;;;;;;;2.07;1.87;;;2.50;99.90;3.30;97070.00;;;;5110209;28;20456;-86
2022/12/26 06:24:08;;;;;;;1.57;1.33;;;;;3.60;97063.00;;;;5108147;27;20424;-86
2022/12/26 06:26:57;;;;;;;2.50;1.67;;;3.80;99.90;3.80;97067.00;;;;5107398;27;20428;-86
2022/12/26 06:29:47;;;;;;;2.63;1.73;;;2.60;99.90;3.30;97058.00;;;;5115340;27;20425;-87
2022/12/26 06:32:36;;;;;;;2.00;1.10;;;;;3.30;97060.00;;;;5115237;27;20977;-86
2022/12/26 06:35:25;;;;;;;2.47;1.00;;;;;3.00;97060.00;;;;5096805;28;20460;-87
2022/12/26 06:38:14;;;;;;;1.73;1.63;;;2.40;99.90;3.00;97061.00;;;;5099848;28;20464;-86
2022/12/26 06:41:06;;;;;;;1.70;1.60;;;2.60;99.90;3.00;97068.00;;;;5108555;28;21167;-86
2022/12/26 06:43:55;;;;;;;1.97;1.60;;;;;3.10;97058.00;;;;5115732;27;20909;-87
2022/12/26 06:46:46;;;;;;;1.87;1.77;;;2.30;99.90;3.50;97065.00;;;;5116259;27;20489;-87
2022/12/26 06:49:35;;;;;;;1.63;1.43;;;;;3.80;97074.00;;;;5115749;27;20440;-87
2022/12/26 06:52:24;;;;;;;2.47;2.03;;;;;3.80;97078.00;;;;5109820;27;21030;-85
2022/12/26 06:55:13;;;;;;;2.07;1.90;;;;;3.50;97075.00;;;;5114604;27;20429;-86
2022/12/26 06:58:02;;;;;;;1.07;1.00;;;2.50;99.90;3.60;97087.00;;;;5119995;27;20466;-86
2022/12/26 07:00:51;;;;;;;2.13;1.30;;;4.70;99.90;3.50;97080.00;;;;5121580;27;20981;-85
2022/12/26 07:03:42;;;;;;;2.47;1.97;;;2.50;99.90;3.60;97069.00;;;;5107928;27;20427;-86
2022/12/26 07:06:37;;;;;;;8.97;3.30;;;2.50;99.90;3.50;97073.00;;;;5111303;28;20483;-87
2022/12/26 07:09:26;;;;;;;12.27;4.93;;;2.50;99.90;2.90;97073.00;;;;5117784;27;20458;-86
2022/12/26 07:12:20;;;;;;;12.10;4.63;;;4.50;99.90;3.20;97066.00;;;;5121181;27;20429;-87
2022/12/26 07:15:10;;;;;;;9.53;5.40;;;2.40;99.90;3.10;97061.00;;;;5105165;27;20449;-85
2022/12/26 07:17:59;;;;;;;4.67;4.23;;;2.30;99.90;3.10;97067.00;;;;5107389;27;20463;-86
2022/12/26 07:20:49;;;;;;;3.03;2.73;;;2.20;99.90;3.00;97067.00;;;;5108375;27;20451;-86
2022/12/26 07:23:39;;;;;;;1.63;1.53;;;2.20;99.90;3.10;97068.00;;;;5108150;27;20406;-85
2022/12/26 07:26:28;;;;;;;3.07;2.60;;;2.20;99.90;3.10;97073.00;;;;5104396;28;20440;-86
2022/12/26 07:29:16;;;;;;;1.43;1.30;;;3.50;99.90;3.70;97077.00;;;;5109580;27;20970;-86
2022/12/26 07:32:06;;;;;;;4.13;2.73;;;2.40;99.90;3.90;97074.00;;;;5108580;27;20460;-85
2022/12/26 07:34:55;;;;;;;5.57;3.57;;;2.50;99.90;4.10;97084.00;;;;5113179;27;20440;-85
2022/12/26 07:37:45;;;;;;;3.80;2.90;;;2.70;99.90;3.90;97088.00;;;;5107832;28;20491;-87
2022/12/26 07:40:33;;;;;;;5.37;2.93;;;2.60;99.90;4.00;97084.00;;;;5110902;28;20420;-86
2022/12/26 07:43:23;;;;;;;6.90;3.00;;;4.00;99.90;3.70;97076.00;;;;5108430;27;20429;-86
2022/12/26 07:46:12;;;;;;;2.93;2.10;;;;;3.70;97081.00;;;;5104551;27;20982;-86
2022/12/26 07:49:00;;;;;;;2.40;2.20;;;2.70;99.90;3.70;97075.00;;;;5117268;27;20429;-86
2022/12/26 07:51:50;;;;;;;2.10;1.90;;;2.70;99.90;3.80;97075.00;;;;5106056;27;20978;-86
2022/12/26 07:54:40;;;;;;;2.73;2.07;;;2.70;99.90;3.90;97079.00;;;;5109721;27;20834;-86
2022/12/26 07:57:29;;;;;;;4.57;2.27;;;2.70;99.90;3.80;97084.00;;;;5113655;27;20459;-86
2022/12/26 08:00:35;;;;;;;2.03;1.90;;;;;4.00;97091.00;;;;5112132;27;20436;-86
2022/12/26 08:03:24;;;;;;;1.83;1.70;;;;;3.60;97078.00;;;;5106630;28;20432;-87
2022/12/26 08:06:12;;;;;;;2.90;1.97;;;2.70;99.90;3.90;97084.00;;;;5107138;28;20463;-86
2022/12/26 08:09:01;;;;;;;3.77;2.00;;;2.80;99.90;4.00;97087.00;;;;5119365;27;20433;-86
2022/12/26 08:11:51;;;;;;;2.77;2.33;;;4.10;99.90;4.40;97093.00;;;;5115067;27;20456;-87
2022/12/26 08:14:41;;;;;;;2.80;2.17;;;;;4.40;97081.00;;;;5101839;27;20427;-86
2022/12/26 08:17:31;;;;;;;2.00;1.90;;;3.00;99.90;4.30;97082.00;;;;5109292;28;20472;-87
2022/12/26 08:20:20;;;;;;;2.80;1.93;;;3.00;99.90;4.50;97086.00;;;;5097739;28;20431;-87
2022/12/26 08:23:09;;;;;;;3.47;2.43;;;3.20;99.90;5.00;97093.00;;;;5104584;27;20448;-86
2022/12/26 08:25:58;;;;;;;2.67;1.93;;;3.40;99.90;4.90;97086.00;;;;5109823;27;20420;-87
2022/12/26 08:28:48;;;;;;;3.57;2.13;;;3.50;99.90;4.90;97085.00;;;;5090549;28;20413;-87
2022/12/26 08:31:37;;;;;;;5.13;2.47;;;3.60;99.90;5.20;97095.00;;;;5101521;28;20218;-87
2022/12/26 08:34:33;;;;;;;4.97;2.27;;;5.90;99.90;5.40;97096.00;;;;5102283;28;20190;-86
2022/12/26 08:37:22;;;;;;;2.37;1.97;;;4.50;99.90;5.40;97096.00;;;;5096784;28;20581;-87
2022/12/26 08:40:12;;;;;;;5.20;3.40;;;5.80;99.90;5.40;97102.00;;;;5107192;27;20202;-87
2022/12/26 08:43:03;;;;;;;3.33;3.03;;;4.10;99.90;5.90;97102.00;;;;5108798;27;20199;-86
2022/12/26 08:46:12;;;;;;;4.53;3.63;;;4.80;99.90;5.90;97112.00;;;;5099112;28;20202;-86
2022/12/26 08:49:01;;;;;;;4.87;4.23;;;4.50;99.90;6.00;97122.00;;;;5092762;28;20202;-86
2022/12/26 08:51:50;;;;;;;8.97;5.60;;;4.60;99.90;6.10;97120.00;;;;5095586;28;20230;-86
2022/12/26 08:54:38;;;;;;;8.17;6.17;;;4.70;99.90;6.00;97109.00;;;;5088870;28;20203;-87
2022/12/26 08:57:27;;;;;;;13.63;7.43;;;4.70;99.90;6.00;97106.00;;;;5102121;27;20236;-87
2022/12/26 09:00:17;;;;;;;15.17;8.10;;;4.70;99.90;6.10;97109.00;;;;5113787;27;20199;-86
2022/12/26 09:03:08;;;;;;;21.23;10.73;;;4.80;99.90;6.20;97111.00;;;;5114452;27;20206;-86
2022/12/26 09:05:59;;;;;;;18.60;13.23;;;4.80;99.90;6.40;97113.00;;;;5109447;27;20210;-87
2022/12/26 09:08:51;;;;;;;6.57;5.70;;;5.00;99.90;6.90;97125.00;;;;5115414;27;20232;-87
2022/12/26 09:11:41;;;;;;;5.30;3.60;;;5.20;99.90;7.10;97123.00;;;;5107050;27;20276;-86
2022/12/26 09:14:30;;;;;;;3.87;2.67;;;5.40;99.90;7.70;97137.00;;;;5108776;28;20207;-86
2022/12/26 09:17:19;;;;;;;7.63;4.47;;;5.70;99.90;7.80;97127.00;;;;5101803;28;20199;-86
2022/12/26 09:20:11;;;;;;;3.93;3.17;;;5.90;99.90;7.70;97128.00;;;;5105170;27;20207;-85
2022/12/26 09:23:00;;;;;;;9.47;3.43;;;6.10;99.90;7.80;97132.00;;;;5096301;28;20203;-86
2022/12/26 09:25:48;;;;;;;3.83;3.17;;;6.20;99.90;7.80;97135.00;;;;5102644;28;20202;-86
2022/12/26 09:28:38;;;;;;;2.63;2.17;;;6.40;99.90;7.80;97120.00;;;;5097427;28;20202;-86
2022/12/26 09:31:29;;;;;;;3.07;2.20;;;6.40;99.90;7.70;97119.00;;;;5095284;28;20350;-86
2022/12/26 09:34:18;;;;;;;4.70;2.60;;;6.50;99.90;8.20;97112.00;;;;5105542;28;20190;-86
2022/12/26 09:37:08;;;;;;;3.07;2.60;;;6.60;99.90;8.60;97116.00;;;;5110658;28;20201;-86
2022/12/26 09:39:57;;;;;;;2.43;2.20;;;6.80;99.90;8.70;97120.00;;;;5107437;28;20241;-86
2022/12/26 09:43:00;;;;;;;5.73;3.30;;;6.90;99.90;8.50;97117.00;;;;5109085;28;20195;-86
2022/12/26 09:46:05;;;;;;;3.37;2.43;;;7.00;99.90;8.70;97117.00;;;;5101780;27;20195;-86
2022/12/26 09:49:02;;;;;;;3.37;2.87;;;7.10;99.90;8.70;97115.00;;;;5111763;27;20575;-86
2022/12/26 09:51:56;;;;;;;4.87;3.37;;;7.20;99.90;8.80;97113.00;;;;5104435;27;20210;-86
2022/12/26 09:54:52;;;;;;;5.90;2.77;;;7.30;99.90;9.10;97114.00;;;;5125659;27;20197;-86
2022/12/26 09:57:46;;;;;;;3.13;2.63;;;7.50;99.90;9.20;97114.00;;;;5099959;27;20807;-87
2022/12/26 10:00:44;;;;;;;3.90;2.53;;;7.60;99.90;9.40;97116.00;;;;5113149;27;20619;-86
2022/12/26 10:03:40;;;;;;;2.90;2.50;;;7.80;99.90;9.80;97117.00;;;;5111954;27;20206;-86
2022/12/26 10:06:36;;;;;;;5.27;2.60;;;8.10;99.90;9.90;97106.00;;;;5104514;27;20213;-86
2022/12/26 10:09:56;;;;;;;3.33;2.47;;;8.30;99.90;10.20;97095.00;;;;5109017;28;20203;-86
2022/12/26 10:12:56;;;;;;;2.67;2.00;;;8.50;99.90;10.50;97092.00;;;;5100114;27;20206;-85
2022/12/26 10:15:50;;;;;;;2.60;2.10;;;8.70;99.90;10.90;97092.00;;;;5105981;28;20235;-86
2022/12/26 10:18:56;;;;;;;2.20;2.00;;;8.90;99.90;11.00;97090.00;;;;5115795;27;20677;-85
2022/12/26 10:21:52;;;;;;;2.73;1.90;;;9.10;99.90;11.20;97087.00;;;;5098453;28;20207;-85
2022/12/26 10:24:42;;;;;;;3.07;2.10;;;9.30;99.90;11.60;97083.00;;;;5110032;28;20275;-87
2022/12/26 10:27:41;;;;;;;2.70;2.23;;;9.70;99.90;12.10;97074.00;;;;5113372;27;20202;-86
2022/12/26 10:30:39;;;;;;;2.10;1.57;;;10.40;99.90;12.60;97086.00;;;;5107248;27;20253;-86
2022/12/26 10:33:38;;;;;;;3.47;2.00;;;11.30;99.90;12.80;97078.00;;;;5118714;27;20649;-87
2022/12/26 10:36:34;;;;;;;3.30;2.23;;;11.90;99.90;13.10;97083.00;;;;5113236;27;20204;-87
2022/12/26 10:39:30;;;;;;;3.67;2.30;;;12.20;99.90;13.00;97076.00;;;;5107267;28;20230;-88
2022/12/26 10:42:27;;;;;;;1.90;1.60;;;12.40;99.90;13.10;97079.00;;;;5108494;28;20304;-86
2022/12/26 10:45:22;;;;;;;4.73;2.60;;;12.60;99.90;13.20;97079.00;;;;5105105;27;20662;-86
2022/12/26 10:48:14;;;;;;;3.00;1.90;;;12.70;99.90;13.20;97085.00;;;;5109203;28;20202;-86
2022/12/26 10:51:04;;;;;;;2.63;2.27;;;12.60;99.90;13.20;97081.00;;;;5106386;28;20735;-87
2022/12/26 10:53:55;;;;;;;2.83;2.60;;;12.70;99.90;13.70;97086.00;;;;5109299;28;20206;-86
2022/12/26 10:56:44;;;;;;;2.63;2.13;;;12.70;99.90;13.40;97076.00;;;;5089963;28;20202;-86
2022/12/26 10:59:42;;;;;;;3.63;2.03;;;12.80;99.90;13.70;97069.00;;;;5110571;28;20246;-86
2022/12/26 11:02:33;;;;;;;2.77;2.50;;;12.90;99.90;13.90;97049.00;;;;5097001;27;20749;-87
2022/12/26 11:05:24;;;;;;;3.20;2.60;;;13.00;99.70;13.80;97050.00;;;;5104047;27;20206;-86
2022/12/26 11:08:34;;;;;;;3.37;1.83;;;13.10;99.20;14.30;97046.00;;;;5108066;28;20199;-88
2022/12/26 11:11:44;;;;;;;2.30;2.00;;;13.40;98.60;14.10;97049.00;;;;5109159;27;20233;-87
2022/12/26 11:14:38;;;;;;;2.83;2.27;;;13.60;97.30;13.90;97048.00;;;;5123150;27;20197;-86
2022/12/26 11:17:30;;;;;;;2.37;1.90;;;13.50;96.50;14.10;97039.00;;;;5116950;27;20208;-87
2022/12/26 11:20:30;;;;;;;2.23;1.87;;;13.40;96.80;14.20;97032.00;;;;5113486;27;20555;-87
2022/12/26 11:23:25;;;;;;;3.65;2.00;;;13.30;97.30;14.20;97027.00;;;;5112948;27;20257;-86
2022/12/26 11:26:22;;;;;;;4.10;3.03;;;13.40;96.50;13.80;97027.00;;;;5113360;27;20795;-87
2022/12/26 11:29:15;;;;;;;2.17;1.77;;;13.40;96.20;14.20;97032.00;;;;5107381;27;20229;-87
2022/12/26 11:32:05;;;;;;;2.07;1.87;;;13.20;96.50;14.40;97022.00;;;;5102582;28;20219;-87
2022/12/26 11:34:54;;;;;;;2.47;2.27;;;13.40;95.90;14.50;97026.00;;;;5107107;27;20255;-86
2022/12/26 11:37:47;;;;;;;3.37;2.20;;;13.60;95.60;14.80;97010.00;;;;5107901;27;20838;-87
2022/12/26 11:41:30;;;;;;;3.27;1.87;;;13.90;95.50;14.60;97014.00;;;;5120483;27;20298;-86
2022/12/26 11:43:49;;;;;;;2.33;1.70;;;14.00;93.90;15.40;97022.00;;;;5110088;27;20648;-86
2022/12/26 11:46:43;;;;;;;1.80;1.70;;;14.20;95.00;15.80;97028.00;;;;5106890;27;20198;-86
2022/12/26 11:49:35;;;;;;;4.90;1.80;;;14.50;95.00;15.60;97022.00;;;;5129348;28;20186;-88
2022/12/26 11:52:39;;;;;;;3.60;1.60;;;14.90;92.50;13.70;97023.00;;;;5108136;28;20786;-86
2022/12/26 11:55:33;;;;;;;2.57;2.03;;;14.70;91.40;13.90;97011.00;;;;5095178;28;20199;-87
2022/12/26 11:58:24;;;;;;;8.03;3.60;;;14.20;92.30;14.70;97010.00;;;;5107435;28;20206;-86
2022/12/26 12:01:16;;;;;;;4.37;2.80;;;13.90;93.00;14.80;97000.00;;;;5114003;27;20305;-87
2022/12/26 12:04:05;;;;;;;2.20;1.73;;;13.80;92.80;14.20;96997.00;;;;5115747;28;20252;-86
2022/12/26 12:07:06;;;;;;;8.40;2.13;;;13.50;93.40;14.50;97005.00;;;;5093630;28;20202;-86
2022/12/26 12:10:03;;;;;;;8.17;1.97;;;13.40;94.00;14.80;97010.00;;;;5105670;28;20202;-86
2022/12/26 12:13:02;;;;;;;2.67;1.80;;;13.30;94.40;14.70;97006.00;;;;5110740;28;20203;-86
2022/12/26 12:16:00;;;;;;;3.50;1.73;;;13.30;94.30;14.80;97021.00;;;;5104746;28;20205;-86
2022/12/26 12:18:57;;;;;;;1.87;1.67;;;13.30;94.40;14.90;97022.00;;;;5106990;27;20201;-86
2022/12/26 12:22:01;;;;;;;3.20;2.27;;;13.20;94.40;14.40;97019.00;;;;5107043;27;20297;-86
2022/12/26 12:25:28;;;;;;;2.13;1.67;;;13.20;94.10;14.90;97029.00;;;;5104745;27;20199;-86
2022/12/26 12:28:47;;;;;;;3.37;2.00;;;13.20;94.30;15.60;97015.00;;;;5095480;28;20297;-85
2022/12/26 12:31:53;;;;;;;3.47;2.37;;;13.50;94.50;15.70;97023.00;;;;5096376;28;20233;-86
2022/12/26 12:35:41;;;;;;;3.13;2.30;;;13.90;93.70;15.20;97015.00;;;;5108619;28;20202;-86
2022/12/26 12:38:33;;;;;;;2.80;1.87;;;14.00;92.50;14.70;97011.00;;;;5108813;27;20668;-86
2022/12/26 12:41:40;;;;;;;3.67;1.60;;;13.90;92.50;15.20;97002.00;;;;5113392;27;20298;-86
2022/12/26 12:44:51;;;;;;;3.07;1.57;;;13.90;92.80;16.20;97009.00;;;;5108918;27;20579;-86
2022/12/26 12:48:12;;;;;;;2.13;1.90;;;14.10;93.20;15.60;96998.00;;;;5106408;28;20251;-87
2022/12/26 12:51:10;;;;;;;2.83;1.80;;;14.20;92.30;15.80;96988.00;;;;5099532;27;20800;-86
2022/12/26 12:54:28;;;;;;;2.30;1.73;;;14.40;92.00;15.80;97004.00;;;;5103513;28;20204;-86
2022/12/26 12:57:24;;;;;;;2.60;1.90;;;14.40;91.80;16.10;97002.00;;;;5097321;27;20210;-87
2022/12/26 13:00:20;;;;;;;2.60;1.70;;;14.40;99.70;16.40;97005.00;;;;5104025;27;20222;-87
2022/12/26 13:03:17;;;;;;;1.47;1.30;;;14.60;92.40;16.40;97008.00;;;;5114720;27;20657;-86
2022/12/26 13:06:11;;;;;;;2.80;2.07;;;14.60;92.00;15.80;96998.00;;;;5105196;28;20762;-86
2022/12/26 13:12:16;;;;;;;3.50;2.57;;;14.50;92.30;16.10;97003.00;;;;5104560;28;20218;-87
2022/12/26 13:15:09;;;;;;;1.47;1.37;;;14.50;91.80;16.20;97024.00;;;;5108267;28;20198;-86
2022/12/26 13:18:05;;;;;;;2.60;1.27;;;14.50;92.00;16.10;97011.00;;;;5107904;27;20228;-86
2022/12/26 13:20:59;;;;;;;2.63;1.77;;;14.60;91.40;15.60;97022.00;;;;5093299;27;20226;-86
2022/12/26 13:27:05;;;;;;;2.87;1.90;;;14.30;91.60;16.00;97009.00;;;;5101780;28;20198;-86
2022/12/26 13:29:54;;;;;;;2.33;1.77;;;14.40;91.20;16.00;97005.00;;;;5095129;28;20202;-88
2022/12/26 13:32:44;;;;;;;3.57;2.60;;;14.50;91.10;16.70;97015.00;;;;5114311;28;20233;-86
2022/12/26 13:35:57;;;;;;;5.97;1.97;;;14.70;91.00;15.60;97014.00;;;;5113334;28;20206;-86
2022/12/26 13:39:40;;;;;;;3.13;1.70;;;14.70;90.50;16.30;97026.00;;;;5101904;28;20206;-87
2022/12/26 13:45:56;;;;;;;2.97;2.40;;;14.50;90.40;15.00;97019.00;;;;5029537;28;20270;-86
2022/12/26 13:48:58;;;;;;;4.20;1.80;;;14.10;90.50;15.10;97008.00;;;;5103040;28;20205;-86
2022/12/26 13:51:55;;;;;;;2.00;1.70;;;14.00;91.10;15.80;97008.00;;;;5095955;28;20227;-86
2022/12/26 13:55:35;;;;;;;2.93;2.03;;;14.10;91.40;16.00;97036.00;;;;5114212;28;20211;-86
2022/12/26 13:59:01;;;;;;;2.00;1.67;;;14.30;91.10;16.20;97036.00;;;;5108151;28;20194;-86
2022/12/26 14:02:23;;;;;;;2.10;1.60;;;14.40;91.00;16.00;97040.00;;;;5045588;28;20248;-86
2022/12/26 14:05:22;;;;;;;2.80;1.80;;;14.50;90.70;15.60;97038.00;;;;5039236;28;20211;-86
2022/12/26 14:08:24;;;;;;;2.33;2.10;;;14.30;90.90;15.30;97041.00;;;;5110582;28;20250;-87
2022/12/26 14:11:35;;;;;;;5.73;2.10;;;14.00;90.90;15.00;97044.00;;;;5105080;28;20622;-86
2022/12/26 14:14:37;;;;;;;2.43;2.23;;;13.70;92.00;13.70;97040.00;;;;5100505;28;20225;-86
2022/12/26 14:17:39;;;;;;;3.83;2.57;;;13.30;92.10;13.70;97042.00;;;;5111650;28;20564;-86
2022/12/26 14:20:41;;;;;;;2.87;1.93;;;12.40;93.40;12.50;97042.00;;;;5109515;28;20217;-86
2022/12/26 14:23:44;;;;;;;3.30;2.40;;;11.80;94.40;12.30;97035.00;;;;5129207;28;20213;-86
2022/12/26 14:26:44;;;;;;;2.30;2.10;;;11.70;94.70;11.90;97037.00;;;;5125570;28;20194;-86
2022/12/26 14:29:46;;;;;;;2.73;2.40;;;11.30;95.30;11.90;97039.00;;;;5129887;27;20191;-85
2022/12/26 14:32:48;;;;;;;3.07;2.10;;;11.00;96.40;11.90;97043.00;;;;5123374;28;20271;-86
2022/12/26 14:35:44;;;;;;;2.77;2.53;;;10.70;96.80;11.90;97040.00;;;;5120952;28;20205;-86
2022/12/26 14:38:46;;;;;;;4.47;2.60;;;10.50;97.10;11.90;97039.00;;;;5116749;27;20264;-86
2022/12/26 14:45:44;;;;;;;6.23;3.00;;;10.30;98.20;11.00;97042.00;;;;5104897;28;20211;-86
2022/12/26 14:48:58;;;;;;;2.73;2.43;;;9.90;99.40;10.60;97037.00;;;;5110653;27;20206;-86
2022/12/26 14:51:47;;;;;;;3.37;2.20;;;9.70;99.90;10.50;97027.00;;;;5105097;28;20692;-86
2022/12/26 14:54:45;;;;;;;2.33;1.80;;;9.50;99.90;10.40;97024.00;;;;5087229;28;20211;-86
2022/12/26 14:57:47;;;;;;;2.80;1.93;;;9.30;99.90;10.30;97023.00;;;;5096229;28;20912;-86
2022/12/26 15:00:38;;;;;;;2.30;1.83;;;9.10;99.90;10.20;97019.00;;;;5110598;28;20226;-86
2022/12/26 15:03:43;;;;;;;4.00;2.33;;;9.00;99.90;9.80;97021.00;;;;5109347;28;20206;-85
2022/12/26 15:07:06;;;;;;;6.80;2.53;;;8.80;99.90;9.50;97035.00;;;;5105985;28;20211;-85
2022/12/26 15:10:19;;;;;;;3.37;2.50;;;8.50;99.90;9.20;97033.00;;;;5103168;27;20202;-85
2022/12/26 15:14:11;;;;;;;2.90;2.00;;;8.30;99.90;8.90;97026.00;;;;5110317;27;20201;-85
2022/12/26 15:17:14;;;;;;;2.60;2.30;;;8.10;99.90;8.80;97022.00;;;;5104958;28;20606;-85
2022/12/26 15:20:49;;;;;;;6.60;2.23;;;7.90;99.90;9.10;97015.00;;;;5108111;27;20194;-85
2022/12/26 15:24:37;;;;;;;33.70;16.00;;;7.80;99.90;8.90;97018.00;;;;5115627;27;20208;-85
2022/12/26 15:28:32;;;;;;;11.30;4.67;;;7.60;99.90;7.90;97018.00;;;;5104042;27;20205;-86
2022/12/26 15:31:47;;;;;;;7.33;2.60;;;7.40;99.90;8.10;97025.00;;;;5103585;27;20728;-85
2022/12/26 15:34:52;;;;;;;2.20;1.60;;;7.10;99.90;8.00;97031.00;;;;5100224;27;20224;-85
2022/12/26 15:37:58;;;;;;;2.33;1.73;;;6.90;99.90;7.80;97032.00;;;;5105394;28;20612;-85
2022/12/26 15:40:55;;;;;;;3.10;1.80;;;6.80;99.90;7.90;97027.00;;;;5105054;27;20222;-86
2022/12/26 15:44:01;;;;;;;2.53;1.97;;;6.70;99.90;7.50;97029.00;;;;5091610;27;20210;-85